createdAt,value
2023-05-05T00:00:18.709Z,8.87
2023-05-05T00:03:07.505Z,8.83
2023-05-05T00:05:35.716Z,8.78
2023-05-05T00:08:04.052Z,8.72
2023-05-05T00:10:32.801Z,8.68
2023-05-05T00:13:02.206Z,8.63
2023-05-05T00:15:31.701Z,8.60
2023-05-05T00:18:00.498Z,8.58
2023-05-05T00:20:28.948Z,8.57
2023-05-05T00:22:58.456Z,8.55
2023-05-05T00:25:27.218Z,8.53
2023-05-05T00:27:55.816Z,8.50
2023-05-05T00:30:24.468Z,8.48
2023-05-05T00:32:52.679Z,8.45
2023-05-05T00:35:20.875Z,8.45
2023-05-05T00:37:49.508Z,8.44
2023-05-05T00:40:18.930Z,8.43
2023-05-05T00:42:48.165Z,8.42
2023-05-05T00:45:17.348Z,8.42
2023-05-05T00:47:47.985Z,8.39
2023-05-05T00:50:23.014Z,8.34
2023-05-05T00:52:52.758Z,8.29
2023-05-05T00:55:21.868Z,8.25
2023-05-05T00:57:50.844Z,8.22
2023-05-05T01:00:19.015Z,8.18
2023-05-05T01:02:47.408Z,8.15
2023-05-05T01:05:16.426Z,8.11
2023-05-05T01:07:48.611Z,8.07
2023-05-05T01:10:30.141Z,8.01
2023-05-05T01:13:11.771Z,7.96
2023-05-05T01:15:44.443Z,7.91
2023-05-05T01:18:24.130Z,7.88
2023-05-05T01:20:58.523Z,7.85
2023-05-05T01:23:45.239Z,7.82
2023-05-05T01:26:36.605Z,7.80
2023-05-05T01:29:08.250Z,7.77
2023-05-05T01:31:36.519Z,7.75
2023-05-05T01:34:06.803Z,7.74
2023-05-05T01:36:44.946Z,7.72
2023-05-05T01:39:16.314Z,7.69
2023-05-05T01:41:47.505Z,7.67
2023-05-05T01:44:17.032Z,7.63
2023-05-05T01:46:45.314Z,7.58
2023-05-05T01:49:14.024Z,7.54
2023-05-05T01:51:42.601Z,7.50
2023-05-05T01:54:10.960Z,7.45
2023-05-05T01:56:40.525Z,7.41
2023-05-05T01:59:10.817Z,7.34
2023-05-05T02:01:42.446Z,7.29
2023-05-05T02:04:14.693Z,7.23
2023-05-05T02:06:44.863Z,7.20
2023-05-05T02:09:17.187Z,7.16
2023-05-05T02:11:46.749Z,7.15
2023-05-05T02:14:17.231Z,7.12
2023-05-05T02:17:03.863Z,7.10
2023-05-05T02:19:39.374Z,7.08
2023-05-05T02:22:08.163Z,7.04
2023-05-05T02:24:37.991Z,7.01
2023-05-05T02:27:07.780Z,7.00
2023-05-05T02:29:38.416Z,6.97
2023-05-05T02:32:12.409Z,6.95
2023-05-05T02:34:41.716Z,6.94
2023-05-05T02:37:11.461Z,6.94
2023-05-05T02:39:51.885Z,6.92
2023-05-05T02:42:22.049Z,6.89
2023-05-05T02:44:51.810Z,6.85
2023-05-05T02:47:27.990Z,6.82
2023-05-05T02:49:58.796Z,6.79
2023-05-05T02:52:40.638Z,6.76
2023-05-05T02:55:09.335Z,6.75
2023-05-05T02:57:56.393Z,6.74
2023-05-05T03:00:30.344Z,6.72
2023-05-05T03:03:18.519Z,6.72
2023-05-05T03:06:07.040Z,6.69
2023-05-05T03:08:44.552Z,6.66
2023-05-05T03:11:24.762Z,6.64
2023-05-05T03:13:58.772Z,6.62
2023-05-05T03:16:28.564Z,6.60
2023-05-05T03:18:58.963Z,6.58
2023-05-05T03:21:27.848Z,6.58
2023-05-05T03:23:56.032Z,6.58
2023-05-05T03:26:24.864Z,6.58
2023-05-05T03:28:53.719Z,6.56
2023-05-05T03:31:21.846Z,6.55
2023-05-05T03:33:50.011Z,6.56
2023-05-05T03:36:18.231Z,6.59
2023-05-05T03:38:46.319Z,6.64
2023-05-05T03:41:14.403Z,6.68
2023-05-05T03:43:42.752Z,6.70
2023-05-05T03:46:11.035Z,6.68
2023-05-05T03:48:39.340Z,6.64
2023-05-05T03:51:07.730Z,6.62
2023-05-05T03:53:36.025Z,6.63
2023-05-05T03:56:04.155Z,6.63
2023-05-05T03:58:32.433Z,6.64
2023-05-05T04:01:00.652Z,6.61
2023-05-05T04:03:28.900Z,6.59
2023-05-05T04:05:57.233Z,6.58
2023-05-05T04:08:25.316Z,6.56
2023-05-05T04:10:53.383Z,6.55
2023-05-05T04:13:21.567Z,6.53
2023-05-05T04:15:49.777Z,6.55
2023-05-05T04:18:17.921Z,6.59
2023-05-05T04:20:46.911Z,6.63
2023-05-05T04:23:17.147Z,6.67
2023-05-05T04:25:45.269Z,6.71
2023-05-05T04:28:13.383Z,6.67
2023-05-05T04:30:41.480Z,6.64
2023-05-05T04:33:09.585Z,6.60
2023-05-05T04:35:41.315Z,6.56
2023-05-05T04:38:17.338Z,6.53
2023-05-05T04:40:48.422Z,6.51
2023-05-05T04:43:26.069Z,6.46
2023-05-05T04:45:57.128Z,6.48
2023-05-05T04:48:25.258Z,6.49
2023-05-05T04:50:53.405Z,6.49
2023-05-05T04:53:22.006Z,6.44
2023-05-05T04:55:50.940Z,6.48
2023-05-05T04:58:19.535Z,6.45
2023-05-05T05:00:49.056Z,6.45
2023-05-05T05:03:18.899Z,6.45
2023-05-05T05:05:47.133Z,6.44
2023-05-05T05:08:18.572Z,6.49
2023-05-05T05:10:46.698Z,6.53
2023-05-05T05:13:14.815Z,6.57
2023-05-05T05:15:43.112Z,6.59
2023-05-05T05:18:11.307Z,6.63
2023-05-05T05:20:39.391Z,6.64
2023-05-05T05:23:07.496Z,6.62
2023-05-05T05:25:35.688Z,6.58
2023-05-05T05:28:10.241Z,6.57
2023-05-05T05:30:38.837Z,6.55
2023-05-05T05:33:07.367Z,6.55
2023-05-05T05:35:35.550Z,6.58
2023-05-05T05:38:03.849Z,6.64
2023-05-05T05:40:32.444Z,6.66
2023-05-05T05:43:00.559Z,6.65
2023-05-05T05:45:28.913Z,6.65
2023-05-05T05:47:57.091Z,6.62
2023-05-05T05:50:27.400Z,6.64
2023-05-05T05:52:55.855Z,6.64
2023-05-05T05:55:24.445Z,6.66
2023-05-05T05:57:52.618Z,6.72
2023-05-05T06:00:21.463Z,6.79
2023-05-05T06:02:51.630Z,6.89
2023-05-05T06:05:20.718Z,6.98
2023-05-05T06:07:48.845Z,7.07
2023-05-05T06:10:27.471Z,7.14
2023-05-05T06:12:57.335Z,7.22
2023-05-05T06:15:26.089Z,7.27
2023-05-05T06:17:54.229Z,7.38
2023-05-05T06:20:22.482Z,7.47
2023-05-05T06:22:50.685Z,7.54
2023-05-05T06:25:18.847Z,7.59
2023-05-05T06:27:47.059Z,7.65
2023-05-05T06:30:15.237Z,7.66
2023-05-05T06:32:43.451Z,7.67
2023-05-05T06:35:11.962Z,7.69
2023-05-05T06:37:40.062Z,7.71
2023-05-05T06:40:09.129Z,7.80
2023-05-05T06:42:37.820Z,7.92
2023-05-05T06:45:06.469Z,8.03
2023-05-05T06:47:34.915Z,8.13
2023-05-05T06:50:04.060Z,8.24
2023-05-05T06:52:32.632Z,8.32
2023-05-05T06:55:00.734Z,8.40
2023-05-05T06:57:28.983Z,8.42
2023-05-05T06:59:57.145Z,8.43
2023-05-05T07:02:26.851Z,8.43
2023-05-05T07:04:55.730Z,8.42
2023-05-05T07:07:23.878Z,8.38
2023-05-05T07:09:51.945Z,8.40
2023-05-05T07:12:20.078Z,8.42
2023-05-05T07:14:48.259Z,8.48
2023-05-05T07:17:16.411Z,8.55
2023-05-05T07:19:44.659Z,8.61
2023-05-05T07:22:12.743Z,8.67
2023-05-05T07:24:40.944Z,8.74
2023-05-05T07:27:09.085Z,8.80
2023-05-05T07:29:37.216Z,8.83
2023-05-05T07:32:05.515Z,8.89
2023-05-05T07:34:34.826Z,8.95
2023-05-05T07:37:04.220Z,9.04
2023-05-05T07:39:33.001Z,9.11
2023-05-05T07:42:02.029Z,9.17
2023-05-05T07:44:30.720Z,9.24
2023-05-05T07:46:59.152Z,9.31
2023-05-05T07:49:27.393Z,9.39
2023-05-05T07:51:55.690Z,9.44
2023-05-05T07:54:23.841Z,9.50
2023-05-05T07:56:52.057Z,9.59
2023-05-05T07:59:20.166Z,9.69
2023-05-05T08:01:48.342Z,9.75
2023-05-05T08:04:16.558Z,9.81
2023-05-05T08:06:44.763Z,9.89
2023-05-05T08:09:12.928Z,9.96
2023-05-05T08:11:41.167Z,9.99
2023-05-05T08:14:09.591Z,10.00
2023-05-05T08:16:37.779Z,10.04
2023-05-05T08:19:14.584Z,10.07
2023-05-05T08:21:50.245Z,10.12
2023-05-05T08:24:18.395Z,10.15
2023-05-05T08:26:46.522Z,10.16
2023-05-05T08:29:14.641Z,10.16
2023-05-05T08:31:42.854Z,10.18
2023-05-05T08:34:11.055Z,10.18
2023-05-05T08:36:39.178Z,10.20
2023-05-05T08:39:07.462Z,10.24
2023-05-05T08:41:35.705Z,10.29
2023-05-05T08:44:03.829Z,10.29
2023-05-05T08:46:32.351Z,10.33
2023-05-05T08:49:01.987Z,10.37
2023-05-05T08:51:34.106Z,10.43
2023-05-05T08:54:07.199Z,10.53
2023-05-05T08:56:38.684Z,10.60
2023-05-05T08:59:07.103Z,10.63
2023-05-05T09:01:36.294Z,10.69
2023-05-05T09:04:04.684Z,10.78
2023-05-05T09:06:34.150Z,10.90
2023-05-05T09:09:02.790Z,11.02
2023-05-05T09:11:31.497Z,11.12
2023-05-05T09:16:45.070Z,11.21
2023-05-05T09:19:13.148Z,11.22
2023-05-05T09:21:49.076Z,11.26
2023-05-05T09:24:17.253Z,11.29
2023-05-05T09:26:48.288Z,11.33
2023-05-05T09:29:23.329Z,11.40
2023-05-05T09:32:08.807Z,11.53
2023-05-05T09:34:37.680Z,11.70
2023-05-05T09:37:06.538Z,11.78
2023-05-05T09:39:34.902Z,11.84
2023-05-05T09:42:03.371Z,11.91
2023-05-05T09:44:35.826Z,11.90
2023-05-05T09:47:09.553Z,11.93
2023-05-05T09:49:43.454Z,11.99
2023-05-05T09:52:13.171Z,12.03
2023-05-05T09:54:42.381Z,12.05
2023-05-05T09:57:25.749Z,12.06
2023-05-05T09:59:58.052Z,12.06
2023-05-05T10:02:33.375Z,12.04
2023-05-05T10:05:08.106Z,12.12
2023-05-05T10:07:37.364Z,12.18
2023-05-05T10:10:08.193Z,12.19
2023-05-05T10:12:39.610Z,12.24
2023-05-05T10:15:09.461Z,12.25
2023-05-05T10:17:44.004Z,12.25
2023-05-05T10:20:19.704Z,12.24
2023-05-05T10:22:55.109Z,12.29
2023-05-05T10:25:31.674Z,12.31
2023-05-05T10:28:00.776Z,12.30
2023-05-05T10:30:33.038Z,12.31
2023-05-05T10:33:30.298Z,12.34
2023-05-05T10:36:01.401Z,12.34
2023-05-05T10:38:31.459Z,12.37
2023-05-05T10:41:02.866Z,12.45
2023-05-05T10:43:31.762Z,12.49
2023-05-05T10:46:00.848Z,12.48
2023-05-05T10:48:35.792Z,12.47
2023-05-05T10:51:27.448Z,12.47
2023-05-05T10:54:10.685Z,12.50
2023-05-05T10:56:40.932Z,12.53
2023-05-05T10:59:43.350Z,12.58
2023-05-05T11:02:21.577Z,12.64
2023-05-05T11:05:05.050Z,12.66
2023-05-05T11:07:34.731Z,12.67
2023-05-05T11:10:07.130Z,12.64
2023-05-05T11:12:54.541Z,12.65
2023-05-05T11:15:31.934Z,12.70
2023-05-05T11:18:06.681Z,12.76
2023-05-05T11:20:45.633Z,12.79
2023-05-05T11:23:20.184Z,12.76
2023-05-05T11:30:12.790Z,12.70
2023-05-05T11:32:41.320Z,12.79
2023-05-05T11:35:10.055Z,12.85
2023-05-05T11:37:52.831Z,12.90
2023-05-05T11:40:24.247Z,12.96
2023-05-05T11:43:04.333Z,12.99
2023-05-05T11:45:32.992Z,13.00
2023-05-05T11:48:20.005Z,12.95
2023-05-05T11:50:49.590Z,13.03
2023-05-05T11:53:19.226Z,13.11
2023-05-05T11:55:47.730Z,13.25
2023-05-05T11:58:31.602Z,13.41
2023-05-05T12:01:00.322Z,13.50
2023-05-05T12:03:34.166Z,13.59
2023-05-05T12:06:03.356Z,13.64
2023-05-05T12:08:38.709Z,13.73
2023-05-05T12:11:08.018Z,13.74
2023-05-05T12:13:36.421Z,13.67
2023-05-05T12:16:17.489Z,13.57
2023-05-05T12:18:46.325Z,13.52
2023-05-05T12:21:18.530Z,13.48
2023-05-05T12:23:47.143Z,13.41
2023-05-05T12:26:31.267Z,13.44
2023-05-05T12:29:29.942Z,13.41
2023-05-05T12:32:14.227Z,13.43
2023-05-05T12:34:56.057Z,13.43
2023-05-05T12:41:23.907Z,13.59
2023-05-05T12:50:18.442Z,13.68
2023-05-05T12:52:55.680Z,13.75
2023-05-05T12:58:53.829Z,13.72
2023-05-05T13:01:36.687Z,13.74
2023-05-05T13:04:06.127Z,13.80
2023-05-05T13:06:38.833Z,13.90
2023-05-05T13:09:38.542Z,14.00
2023-05-05T13:12:24.468Z,13.97
2023-05-05T13:14:54.468Z,13.99
2023-05-05T13:17:23.497Z,13.97
2023-05-05T13:19:52.484Z,13.96
2023-05-05T13:22:20.658Z,13.97
2023-05-05T13:24:52.174Z,13.99
2023-05-05T13:27:21.281Z,14.02
2023-05-05T13:29:49.674Z,14.01
2023-05-05T13:32:18.224Z,13.96
2023-05-05T13:35:14.691Z,13.86
2023-05-05T13:37:49.157Z,13.77
2023-05-05T13:40:17.458Z,13.67
2023-05-05T13:42:59.941Z,13.67
2023-05-05T13:45:28.383Z,13.74
2023-05-05T13:47:57.513Z,13.77
2023-05-05T13:53:36.542Z,13.90
2023-05-05T13:56:05.488Z,13.96
2023-05-05T13:58:38.162Z,14.04
2023-05-05T14:01:07.331Z,14.12
2023-05-05T14:03:36.136Z,14.12
2023-05-05T14:06:05.773Z,14.19
2023-05-05T14:08:35.427Z,14.29
2023-05-05T14:11:08.645Z,14.39
2023-05-05T14:13:36.923Z,14.48
2023-05-05T14:16:05.416Z,14.47
2023-05-05T14:18:44.276Z,14.33
2023-05-05T14:21:12.567Z,14.13
2023-05-05T14:23:41.123Z,14.01
2023-05-05T14:26:09.814Z,13.99
2023-05-05T14:28:38.208Z,14.02
2023-05-05T14:31:06.660Z,14.01
2023-05-05T14:33:34.825Z,13.95
2023-05-05T14:36:02.985Z,13.89
2023-05-05T14:38:31.321Z,13.86
2023-05-05T14:40:59.887Z,13.85
2023-05-05T14:43:44.368Z,13.79
2023-05-05T14:46:46.860Z,13.72
2023-05-05T14:49:44.630Z,13.60
2023-05-05T14:52:34.819Z,13.47
2023-05-05T14:55:48.969Z,13.41
2023-05-05T14:58:37.918Z,13.40
2023-05-05T15:01:06.281Z,13.41
2023-05-05T15:04:48.529Z,13.50
2023-05-05T15:07:22.913Z,13.59
2023-05-05T15:09:53.181Z,13.66
2023-05-05T15:12:24.659Z,13.76
2023-05-05T15:15:10.586Z,13.78
2023-05-05T15:17:39.617Z,13.75
2023-05-05T15:20:08.356Z,13.70
2023-05-05T15:22:36.893Z,13.64
2023-05-05T15:25:09.254Z,13.57
2023-05-05T15:27:39.360Z,13.52
2023-05-05T15:30:08.473Z,13.56
2023-05-05T15:32:37.087Z,13.55
2023-05-05T15:35:06.428Z,13.58
2023-05-05T15:37:35.470Z,13.60
2023-05-05T15:40:05.802Z,13.58
2023-05-05T15:42:34.504Z,13.53
2023-05-05T15:45:03.648Z,13.54
2023-05-05T15:47:31.929Z,13.54
2023-05-05T15:50:02.294Z,13.56
2023-05-05T15:52:31.356Z,13.53
2023-05-05T15:55:00.116Z,13.47
2023-05-05T15:57:29.232Z,13.46
2023-05-05T15:59:57.787Z,13.47
2023-05-05T16:02:26.608Z,13.46
2023-05-05T16:04:55.125Z,13.45
2023-05-05T16:07:23.467Z,13.42
2023-05-05T16:09:51.920Z,13.40
2023-05-05T16:12:21.081Z,13.39
2023-05-05T16:14:49.862Z,13.37
2023-05-05T16:17:19.784Z,13.35
2023-05-05T16:19:48.819Z,13.34
2023-05-05T16:22:17.233Z,13.30
2023-05-05T16:24:45.614Z,13.23
2023-05-05T16:27:15.102Z,13.09
2023-05-05T16:29:43.441Z,12.97
2023-05-05T16:32:11.935Z,12.91
2023-05-05T16:34:40.165Z,12.87
2023-05-05T16:37:08.466Z,12.86
2023-05-05T16:39:40.386Z,12.84
2023-05-05T16:42:08.883Z,12.83
2023-05-05T16:44:37.191Z,12.82
2023-05-05T16:47:05.825Z,12.75
2023-05-05T16:49:36.841Z,12.67
2023-05-05T16:52:05.147Z,12.60
2023-05-05T16:54:33.480Z,12.51
2023-05-05T16:57:02.655Z,12.41
2023-05-05T16:59:31.709Z,12.35
2023-05-05T17:02:00.410Z,12.27
2023-05-05T17:04:28.984Z,12.17
2023-05-05T17:06:58.253Z,12.02
2023-05-05T17:09:27.602Z,11.89
2023-05-05T17:11:56.248Z,11.79
2023-05-05T17:14:24.712Z,11.69
2023-05-05T17:16:54.637Z,11.58
2023-05-05T17:19:23.085Z,11.46
2023-05-05T17:21:51.508Z,11.34
2023-05-05T17:24:19.748Z,11.24
2023-05-05T17:26:49.277Z,11.15
2023-05-05T17:29:21.905Z,11.05
2023-05-05T17:31:50.950Z,10.96
2023-05-05T17:34:19.311Z,10.89
2023-05-05T17:36:47.744Z,10.81
2023-05-05T17:39:16.150Z,10.75
2023-05-05T17:41:44.503Z,10.69
2023-05-05T17:44:12.821Z,10.63
2023-05-05T17:46:41.219Z,10.57
2023-05-05T17:49:09.560Z,10.49
2023-05-05T17:51:37.825Z,10.42
2023-05-05T17:54:06.353Z,10.34
2023-05-05T17:56:36.903Z,10.26
2023-05-05T17:59:05.328Z,10.18
2023-05-05T18:01:33.694Z,10.11
2023-05-05T18:04:01.986Z,10.05
2023-05-05T18:06:30.249Z,9.95
2023-05-05T18:08:58.541Z,9.87
2023-05-05T18:11:29.116Z,9.78
2023-05-05T18:13:57.513Z,9.71
2023-05-05T18:16:26.194Z,9.61
2023-05-05T18:18:54.534Z,9.54
2023-05-05T18:21:22.864Z,9.46
2023-05-05T18:23:51.447Z,9.40
2023-05-05T18:26:19.990Z,9.34
2023-05-05T18:28:48.467Z,9.30
2023-05-05T18:31:17.121Z,9.25
2023-05-05T18:33:46.835Z,9.20
2023-05-05T18:36:16.461Z,9.15
2023-05-05T18:38:44.868Z,9.10
2023-05-05T18:41:13.105Z,9.05
2023-05-05T18:43:41.527Z,8.99
2023-05-05T18:46:09.782Z,8.94
2023-05-05T18:48:38.098Z,8.91
2023-05-05T18:51:07.858Z,8.88
2023-05-05T18:53:45.783Z,8.85
2023-05-05T18:56:14.142Z,8.80
2023-05-05T18:59:14.038Z,8.75
2023-05-05T19:01:53.609Z,8.64
2023-05-05T19:04:31.239Z,8.62
2023-05-05T19:07:00.373Z,8.57
2023-05-05T19:09:29.177Z,8.52
2023-05-05T19:11:57.592Z,8.46
2023-05-05T19:14:28.248Z,8.39
2023-05-05T19:17:15.232Z,8.31
2023-05-05T19:19:52.234Z,8.23
2023-05-05T19:22:23.608Z,8.18
2023-05-05T19:28:02.372Z,8.03
2023-05-05T19:30:33.658Z,7.95
2023-05-05T19:33:13.850Z,7.90
2023-05-05T19:36:34.546Z,7.83
2023-05-05T19:39:14.533Z,7.77
2023-05-05T19:45:20.365Z,7.61
2023-05-05T19:48:27.543Z,7.58
2023-05-05T19:51:26.058Z,7.54
2023-05-05T19:54:14.917Z,7.50
2023-05-05T20:01:34.762Z,7.30
2023-05-05T20:04:31.699Z,7.33
2023-05-05T20:08:07.832Z,7.30
2023-05-05T20:49:38.658Z,6.47
2023-05-05T20:53:14.683Z,6.40
2023-05-05T20:57:33.003Z,6.29
2023-05-05T21:00:08.434Z,6.18
2023-05-05T21:02:41.190Z,6.14
2023-05-05T21:05:14.932Z,6.08
2023-05-05T21:07:43.263Z,6.02
2023-05-05T21:10:12.136Z,5.95
2023-05-05T21:13:23.515Z,5.87
2023-05-05T21:19:46.406Z,5.73
2023-05-05T21:22:14.827Z,5.68
2023-05-05T21:24:44.330Z,5.62
2023-05-05T21:27:18.051Z,5.57
2023-05-05T21:29:47.282Z,5.53
2023-05-05T21:32:15.590Z,5.48
2023-05-05T21:34:44.066Z,5.42
2023-05-05T21:37:12.362Z,5.38
2023-05-05T21:39:40.870Z,5.35
2023-05-05T21:42:16.595Z,5.31
2023-05-05T21:44:44.974Z,5.27
2023-05-05T21:47:16.450Z,5.23
2023-05-05T21:49:50.192Z,5.19
2023-05-05T21:52:28.265Z,5.17
2023-05-05T21:55:22.027Z,5.14
2023-05-05T21:57:50.484Z,5.12
2023-05-05T22:00:18.820Z,5.09
2023-05-05T22:02:47.124Z,5.06
2023-05-05T22:05:15.636Z,5.02
2023-05-05T22:07:43.899Z,4.97
2023-05-05T22:10:12.440Z,4.93
2023-05-05T22:12:41.309Z,4.91
2023-05-05T22:15:11.075Z,4.89
2023-05-05T22:17:39.678Z,4.87
2023-05-05T22:20:09.467Z,4.83
2023-05-05T22:22:37.842Z,4.81
2023-05-05T22:25:07.082Z,4.78
2023-05-05T22:27:35.413Z,4.76
2023-05-05T22:30:04.318Z,4.75
2023-05-05T22:32:32.705Z,4.73
2023-05-05T22:35:01.459Z,4.71
2023-05-05T22:37:29.697Z,4.68
2023-05-05T22:40:00.359Z,4.67
2023-05-05T22:42:29.983Z,4.67
2023-05-05T22:44:58.313Z,4.65
2023-05-05T22:47:26.690Z,4.64
2023-05-05T22:49:55.039Z,4.62
2023-05-05T22:52:25.858Z,4.61
2023-05-05T22:54:54.882Z,4.59
2023-05-05T22:57:23.290Z,4.58
2023-05-05T23:00:00.940Z,4.57
2023-05-05T23:02:29.623Z,4.57
2023-05-05T23:04:58.121Z,4.56
2023-05-05T23:07:26.521Z,4.55
2023-05-05T23:09:58.450Z,4.57
2023-05-05T23:12:26.726Z,4.58
2023-05-05T23:14:55.052Z,4.59
2023-05-05T23:17:23.851Z,4.57
2023-05-05T23:19:52.281Z,4.56
2023-05-05T23:22:20.591Z,4.56
2023-05-05T23:24:48.852Z,4.55
2023-05-05T23:27:17.121Z,4.56
2023-05-05T23:29:45.498Z,4.57
2023-05-05T23:32:13.817Z,4.56
2023-05-05T23:34:42.084Z,4.56
2023-05-05T23:37:10.515Z,4.56
2023-05-05T23:39:38.885Z,4.57
2023-05-05T23:42:07.144Z,4.56
2023-05-05T23:44:35.444Z,4.56
2023-05-05T23:47:03.723Z,4.56
2023-05-05T23:49:32.025Z,4.56
2023-05-05T23:52:00.883Z,4.56
2023-05-05T23:54:29.100Z,4.57
2023-05-05T23:56:57.465Z,4.57
2023-05-05T23:59:26.209Z,4.58
